sensor_id;sensor_type;location;lat;lon;timestamp;P1;durP1;ratioP1;P2;durP2;ratioP2
6095;SDS011;25081;42.698;23.298;2024-01-07T00:01:18;34.20;;;22.17;;
6095;SDS011;25081;42.698;23.298;2024-01-07T00:03:29;38.83;;;21.75;;
6095;SDS011;25081;42.698;23.298;2024-01-07T00:05:39;38.08;;;20.55;;
6095;SDS011;25081;42.698;23.298;2024-01-07T00:07:50;42.85;;;22.98;;
6095;SDS011;25081;42.698;23.298;2024-01-07T00:10:00;37.03;;;22.67;;
6095;SDS011;25081;42.698;23.298;2024-01-07T00:12:11;41.45;;;24.37;;
6095;SDS011;25081;42.698;23.298;2024-01-07T00:14:21;33.38;;;22.50;;
6095;SDS011;25081;42.698;23.298;2024-01-07T00:16:32;37.25;;;22.85;;
6095;SDS011;25081;42.698;23.298;2024-01-07T00:18:42;41.18;;;23.47;;
6095;SDS011;25081;42.698;23.298;2024-01-07T00:20:53;36.03;;;21.30;;
6095;SDS011;25081;42.698;23.298;2024-01-07T00:23:03;48.00;;;21.57;;
6095;SDS011;25081;42.698;23.298;2024-01-07T00:25:14;30.32;;;19.57;;
6095;SDS011;25081;42.698;23.298;2024-01-07T00:27:24;35.13;;;23.02;;
6095;SDS011;25081;42.698;23.298;2024-01-07T00:29:35;34.18;;;20.10;;
6095;SDS011;25081;42.698;23.298;2024-01-07T00:31:45;32.63;;;20.08;;
6095;SDS011;25081;42.698;23.298;2024-01-07T00:33:56;30.10;;;18.50;;
6095;SDS011;25081;42.698;23.298;2024-01-07T00:36:06;33.18;;;18.30;;
6095;SDS011;25081;42.698;23.298;2024-01-07T00:38:17;27.02;;;18.35;;
6095;SDS011;25081;42.698;23.298;2024-01-07T00:40:27;33.28;;;20.20;;
6095;SDS011;25081;42.698;23.298;2024-01-07T00:42:38;33.00;;;20.65;;
6095;SDS011;25081;42.698;23.298;2024-01-07T00:44:48;28.20;;;18.35;;
6095;SDS011;25081;42.698;23.298;2024-01-07T00:46:59;32.90;;;19.40;;
6095;SDS011;25081;42.698;23.298;2024-01-07T00:49:09;40.55;;;21.27;;
6095;SDS011;25081;42.698;23.298;2024-01-07T00:51:20;39.25;;;23.18;;
6095;SDS011;25081;42.698;23.298;2024-01-07T00:53:30;35.03;;;19.42;;
6095;SDS011;25081;42.698;23.298;2024-01-07T00:55:41;31.10;;;19.75;;
6095;SDS011;25081;42.698;23.298;2024-01-07T00:57:51;34.58;;;20.37;;
6095;SDS011;25081;42.698;23.298;2024-01-07T01:00:05;35.28;;;20.52;;
6095;SDS011;25081;42.698;23.298;2024-01-07T01:02:18;38.33;;;21.07;;
6095;SDS011;25081;42.698;23.298;2024-01-07T01:04:29;34.23;;;20.17;;
6095;SDS011;25081;42.698;23.298;2024-01-07T01:06:39;31.68;;;19.60;;
6095;SDS011;25081;42.698;23.298;2024-01-07T01:08:50;33.38;;;20.35;;
6095;SDS011;25081;42.698;23.298;2024-01-07T01:11:00;30.12;;;20.72;;
6095;SDS011;25081;42.698;23.298;2024-01-07T01:13:11;35.65;;;21.50;;
6095;SDS011;25081;42.698;23.298;2024-01-07T01:15:21;32.20;;;19.85;;
6095;SDS011;25081;42.698;23.298;2024-01-07T01:17:32;31.87;;;20.32;;
6095;SDS011;25081;42.698;23.298;2024-01-07T01:19:42;34.60;;;20.15;;
6095;SDS011;25081;42.698;23.298;2024-01-07T01:21:52;39.65;;;20.43;;
6095;SDS011;25081;42.698;23.298;2024-01-07T01:24:03;36.70;;;20.05;;
6095;SDS011;25081;42.698;23.298;2024-01-07T01:26:14;32.70;;;20.92;;
6095;SDS011;25081;42.698;23.298;2024-01-07T01:28:24;40.50;;;21.87;;
6095;SDS011;25081;42.698;23.298;2024-01-07T01:30:35;30.62;;;20.35;;
6095;SDS011;25081;42.698;23.298;2024-01-07T01:32:45;36.42;;;22.30;;
6095;SDS011;25081;42.698;23.298;2024-01-07T01:34:56;37.48;;;23.12;;
6095;SDS011;25081;42.698;23.298;2024-01-07T01:37:07;33.45;;;19.92;;
6095;SDS011;25081;42.698;23.298;2024-01-07T01:39:18;29.23;;;17.42;;
6095;SDS011;25081;42.698;23.298;2024-01-07T01:41:28;31.15;;;19.32;;
6095;SDS011;25081;42.698;23.298;2024-01-07T01:43:38;34.23;;;18.40;;
6095;SDS011;25081;42.698;23.298;2024-01-07T01:45:49;29.77;;;18.37;;
6095;SDS011;25081;42.698;23.298;2024-01-07T01:48:02;38.13;;;18.77;;
6095;SDS011;25081;42.698;23.298;2024-01-07T01:50:13;23.62;;;16.60;;
6095;SDS011;25081;42.698;23.298;2024-01-07T01:52:23;28.55;;;17.65;;
6095;SDS011;25081;42.698;23.298;2024-01-07T01:54:34;31.80;;;17.00;;
6095;SDS011;25081;42.698;23.298;2024-01-07T01:56:44;28.55;;;17.57;;
6095;SDS011;25081;42.698;23.298;2024-01-07T01:58:55;26.60;;;16.45;;
6095;SDS011;25081;42.698;23.298;2024-01-07T02:01:06;26.97;;;16.15;;
6095;SDS011;25081;42.698;23.298;2024-01-07T02:03:16;23.38;;;15.10;;
6095;SDS011;25081;42.698;23.298;2024-01-07T02:05:27;30.32;;;18.10;;
6095;SDS011;25081;42.698;23.298;2024-01-07T02:07:37;26.75;;;15.95;;
6095;SDS011;25081;42.698;23.298;2024-01-07T02:09:48;26.07;;;14.35;;
6095;SDS011;25081;42.698;23.298;2024-01-07T02:12:01;25.27;;;14.33;;
6095;SDS011;25081;42.698;23.298;2024-01-07T02:14:12;28.65;;;16.48;;
6095;SDS011;25081;42.698;23.298;2024-01-07T02:16:23;25.92;;;15.20;;
6095;SDS011;25081;42.698;23.298;2024-01-07T02:18:33;27.05;;;15.70;;
6095;SDS011;25081;42.698;23.298;2024-01-07T02:20:44;30.25;;;15.90;;
6095;SDS011;25081;42.698;23.298;2024-01-07T02:22:54;25.92;;;14.87;;
6095;SDS011;25081;42.698;23.298;2024-01-07T02:25:05;26.27;;;17.50;;
6095;SDS011;25081;42.698;23.298;2024-01-07T02:27:16;25.23;;;16.82;;
6095;SDS011;25081;42.698;23.298;2024-01-07T02:29:27;29.72;;;16.95;;
6095;SDS011;25081;42.698;23.298;2024-01-07T02:31:37;26.52;;;17.42;;
6095;SDS011;25081;42.698;23.298;2024-01-07T02:33:48;28.40;;;18.52;;
6095;SDS011;25081;42.698;23.298;2024-01-07T02:35:58;30.00;;;19.35;;
6095;SDS011;25081;42.698;23.298;2024-01-07T02:38:08;29.25;;;18.35;;
6095;SDS011;25081;42.698;23.298;2024-01-07T02:40:19;36.50;;;18.42;;
6095;SDS011;25081;42.698;23.298;2024-01-07T02:42:29;29.10;;;18.15;;
6095;SDS011;25081;42.698;23.298;2024-01-07T02:44:40;29.48;;;18.12;;
6095;SDS011;25081;42.698;23.298;2024-01-07T02:46:50;30.37;;;18.65;;
6095;SDS011;25081;42.698;23.298;2024-01-07T02:49:01;28.57;;;17.70;;
6095;SDS011;25081;42.698;23.298;2024-01-07T02:51:11;28.10;;;18.27;;
6095;SDS011;25081;42.698;23.298;2024-01-07T02:53:22;25.92;;;16.25;;
6095;SDS011;25081;42.698;23.298;2024-01-07T02:55:32;24.02;;;16.65;;
6095;SDS011;25081;42.698;23.298;2024-01-07T02:57:43;24.75;;;16.23;;
6095;SDS011;25081;42.698;23.298;2024-01-07T02:59:53;27.87;;;16.15;;
6095;SDS011;25081;42.698;23.298;2024-01-07T03:02:04;24.12;;;15.75;;
6095;SDS011;25081;42.698;23.298;2024-01-07T03:04:15;24.57;;;15.53;;
6095;SDS011;25081;42.698;23.298;2024-01-07T03:06:27;21.45;;;16.48;;
6095;SDS011;25081;42.698;23.298;2024-01-07T03:08:37;30.48;;;17.52;;
6095;SDS011;25081;42.698;23.298;2024-01-07T03:10:47;26.68;;;15.90;;
6095;SDS011;25081;42.698;23.298;2024-01-07T03:12:58;28.70;;;15.13;;
6095;SDS011;25081;42.698;23.298;2024-01-07T03:15:09;22.25;;;15.90;;
6095;SDS011;25081;42.698;23.298;2024-01-07T03:17:19;26.57;;;15.43;;
6095;SDS011;25081;42.698;23.298;2024-01-07T03:19:30;21.65;;;14.85;;
6095;SDS011;25081;42.698;23.298;2024-01-07T03:21:40;25.50;;;14.70;;
6095;SDS011;25081;42.698;23.298;2024-01-07T03:23:51;23.52;;;12.63;;
6095;SDS011;25081;42.698;23.298;2024-01-07T03:26:01;21.77;;;14.18;;
6095;SDS011;25081;42.698;23.298;2024-01-07T03:28:11;22.35;;;15.43;;
6095;SDS011;25081;42.698;23.298;2024-01-07T03:30:22;23.47;;;14.65;;
6095;SDS011;25081;42.698;23.298;2024-01-07T03:32:32;23.92;;;15.50;;
6095;SDS011;25081;42.698;23.298;2024-01-07T03:34:43;21.45;;;14.63;;
6095;SDS011;25081;42.698;23.298;2024-01-07T03:36:53;25.82;;;14.43;;
6095;SDS011;25081;42.698;23.298;2024-01-07T03:39:04;21.33;;;14.78;;
6095;SDS011;25081;42.698;23.298;2024-01-07T03:41:16;24.25;;;14.15;;
6095;SDS011;25081;42.698;23.298;2024-01-07T03:43:26;20.40;;;12.30;;
6095;SDS011;25081;42.698;23.298;2024-01-07T03:45:37;16.48;;;11.00;;
6095;SDS011;25081;42.698;23.298;2024-01-07T03:47:47;14.00;;;8.40;;
6095;SDS011;25081;42.698;23.298;2024-01-07T03:49:58;13.70;;;7.90;;
6095;SDS011;25081;42.698;23.298;2024-01-07T03:52:08;9.30;;;6.12;;
6095;SDS011;25081;42.698;23.298;2024-01-07T03:54:19;8.00;;;5.40;;
6095;SDS011;25081;42.698;23.298;2024-01-07T03:56:29;10.20;;;5.42;;
6095;SDS011;25081;42.698;23.298;2024-01-07T03:58:40;8.35;;;5.65;;
6095;SDS011;25081;42.698;23.298;2024-01-07T04:00:50;9.73;;;5.50;;
6095;SDS011;25081;42.698;23.298;2024-01-07T04:03:01;8.08;;;5.33;;
6095;SDS011;25081;42.698;23.298;2024-01-07T04:05:11;9.88;;;5.67;;
6095;SDS011;25081;42.698;23.298;2024-01-07T04:07:22;7.05;;;5.25;;
6095;SDS011;25081;42.698;23.298;2024-01-07T04:09:32;6.67;;;4.70;;
6095;SDS011;25081;42.698;23.298;2024-01-07T04:11:43;6.92;;;5.65;;
6095;SDS011;25081;42.698;23.298;2024-01-07T04:13:53;8.90;;;6.30;;
6095;SDS011;25081;42.698;23.298;2024-01-07T04:16:04;7.70;;;5.37;;
6095;SDS011;25081;42.698;23.298;2024-01-07T04:18:15;5.92;;;4.60;;
6095;SDS011;25081;42.698;23.298;2024-01-07T04:20:25;6.87;;;4.55;;
6095;SDS011;25081;42.698;23.298;2024-01-07T04:22:36;5.57;;;4.30;;
6095;SDS011;25081;42.698;23.298;2024-01-07T04:24:46;6.58;;;4.62;;
6095;SDS011;25081;42.698;23.298;2024-01-07T04:26:56;7.55;;;5.00;;
6095;SDS011;25081;42.698;23.298;2024-01-07T04:29:07;8.13;;;5.10;;
6095;SDS011;25081;42.698;23.298;2024-01-07T04:31:17;7.50;;;5.35;;
6095;SDS011;25081;42.698;23.298;2024-01-07T04:33:28;5.58;;;4.20;;
6095;SDS011;25081;42.698;23.298;2024-01-07T04:35:38;12.18;;;5.87;;
6095;SDS011;25081;42.698;23.298;2024-01-07T04:37:49;8.20;;;4.80;;
6095;SDS011;25081;42.698;23.298;2024-01-07T04:39:59;7.85;;;5.08;;
6095;SDS011;25081;42.698;23.298;2024-01-07T04:42:10;6.55;;;4.75;;
6095;SDS011;25081;42.698;23.298;2024-01-07T04:44:21;6.45;;;5.15;;
6095;SDS011;25081;42.698;23.298;2024-01-07T04:46:34;7.60;;;5.25;;
6095;SDS011;25081;42.698;23.298;2024-01-07T04:48:44;5.78;;;4.58;;
6095;SDS011;25081;42.698;23.298;2024-01-07T04:50:55;13.98;;;4.90;;
6095;SDS011;25081;42.698;23.298;2024-01-07T04:53:05;7.30;;;5.37;;
6095;SDS011;25081;42.698;23.298;2024-01-07T04:55:16;6.75;;;4.65;;
6095;SDS011;25081;42.698;23.298;2024-01-07T04:57:26;10.43;;;6.55;;
6095;SDS011;25081;42.698;23.298;2024-01-07T04:59:36;9.85;;;6.45;;
6095;SDS011;25081;42.698;23.298;2024-01-07T05:01:47;9.83;;;7.28;;
6095;SDS011;25081;42.698;23.298;2024-01-07T05:03:57;15.30;;;8.30;;
6095;SDS011;25081;42.698;23.298;2024-01-07T05:06:08;13.15;;;9.28;;
6095;SDS011;25081;42.698;23.298;2024-01-07T05:08:19;12.93;;;8.18;;
6095;SDS011;25081;42.698;23.298;2024-01-07T05:10:29;12.73;;;8.05;;
6095;SDS011;25081;42.698;23.298;2024-01-07T05:12:40;10.80;;;7.70;;
6095;SDS011;25081;42.698;23.298;2024-01-07T05:14:50;15.95;;;8.90;;
6095;SDS011;25081;42.698;23.298;2024-01-07T05:17:01;13.80;;;9.03;;
6095;SDS011;25081;42.698;23.298;2024-01-07T05:19:12;16.20;;;9.15;;
6095;SDS011;25081;42.698;23.298;2024-01-07T05:21:22;15.20;;;9.38;;
6095;SDS011;25081;42.698;23.298;2024-01-07T05:23:33;13.53;;;8.98;;
6095;SDS011;25081;42.698;23.298;2024-01-07T05:25:43;13.15;;;9.28;;
6095;SDS011;25081;42.698;23.298;2024-01-07T05:27:54;11.18;;;8.50;;
6095;SDS011;25081;42.698;23.298;2024-01-07T05:30:05;17.15;;;9.48;;
6095;SDS011;25081;42.698;23.298;2024-01-07T05:32:16;17.48;;;9.30;;
6095;SDS011;25081;42.698;23.298;2024-01-07T05:34:27;15.10;;;8.95;;
6095;SDS011;25081;42.698;23.298;2024-01-07T05:36:37;14.23;;;8.80;;
6095;SDS011;25081;42.698;23.298;2024-01-07T05:38:47;16.77;;;9.40;;
6095;SDS011;25081;42.698;23.298;2024-01-07T05:40:58;13.40;;;9.98;;
6095;SDS011;25081;42.698;23.298;2024-01-07T05:43:08;12.18;;;8.70;;
6095;SDS011;25081;42.698;23.298;2024-01-07T05:45:19;15.58;;;9.28;;
6095;SDS011;25081;42.698;23.298;2024-01-07T05:47:29;14.53;;;9.50;;
6095;SDS011;25081;42.698;23.298;2024-01-07T05:49:40;16.32;;;9.73;;
6095;SDS011;25081;42.698;23.298;2024-01-07T05:51:50;16.00;;;10.20;;
6095;SDS011;25081;42.698;23.298;2024-01-07T05:54:00;16.00;;;9.43;;
6095;SDS011;25081;42.698;23.298;2024-01-07T05:56:11;15.75;;;8.93;;
6095;SDS011;25081;42.698;23.298;2024-01-07T05:58:21;16.75;;;9.90;;
6095;SDS011;25081;42.698;23.298;2024-01-07T06:00:32;15.05;;;9.38;;
6095;SDS011;25081;42.698;23.298;2024-01-07T06:02:42;13.88;;;8.05;;
6095;SDS011;25081;42.698;23.298;2024-01-07T06:04:53;11.73;;;7.12;;
6095;SDS011;25081;42.698;23.298;2024-01-07T06:07:04;13.10;;;8.43;;
6095;SDS011;25081;42.698;23.298;2024-01-07T06:09:14;12.45;;;8.30;;
6095;SDS011;25081;42.698;23.298;2024-01-07T06:11:24;15.83;;;8.83;;
6095;SDS011;25081;42.698;23.298;2024-01-07T06:13:35;13.08;;;8.48;;
6095;SDS011;25081;42.698;23.298;2024-01-07T06:15:45;15.95;;;9.53;;
6095;SDS011;25081;42.698;23.298;2024-01-07T06:17:56;12.75;;;8.90;;
6095;SDS011;25081;42.698;23.298;2024-01-07T06:20:07;14.43;;;9.03;;
6095;SDS011;25081;42.698;23.298;2024-01-07T06:22:18;12.88;;;8.40;;
6095;SDS011;25081;42.698;23.298;2024-01-07T06:24:28;13.70;;;8.90;;
6095;SDS011;25081;42.698;23.298;2024-01-07T06:26:39;13.53;;;9.08;;
6095;SDS011;25081;42.698;23.298;2024-01-07T06:28:49;14.55;;;9.30;;
6095;SDS011;25081;42.698;23.298;2024-01-07T06:31:01;18.27;;;10.58;;
6095;SDS011;25081;42.698;23.298;2024-01-07T06:33:12;16.20;;;10.75;;
6095;SDS011;25081;42.698;23.298;2024-01-07T06:35:23;17.05;;;10.18;;
6095;SDS011;25081;42.698;23.298;2024-01-07T06:37:33;20.02;;;9.00;;
6095;SDS011;25081;42.698;23.298;2024-01-07T06:39:44;20.50;;;11.85;;
6095;SDS011;25081;42.698;23.298;2024-01-07T06:41:54;19.45;;;11.68;;
6095;SDS011;25081;42.698;23.298;2024-01-07T06:44:05;18.45;;;11.20;;
6095;SDS011;25081;42.698;23.298;2024-01-07T06:46:15;15.13;;;11.00;;
6095;SDS011;25081;42.698;23.298;2024-01-07T06:48:26;17.95;;;12.30;;
6095;SDS011;25081;42.698;23.298;2024-01-07T06:50:36;17.32;;;11.22;;
6095;SDS011;25081;42.698;23.298;2024-01-07T06:52:47;22.25;;;15.15;;
6095;SDS011;25081;42.698;23.298;2024-01-07T06:54:57;19.62;;;12.68;;
6095;SDS011;25081;42.698;23.298;2024-01-07T06:57:07;22.15;;;15.50;;
6095;SDS011;25081;42.698;23.298;2024-01-07T06:59:18;16.50;;;9.93;;
6095;SDS011;25081;42.698;23.298;2024-01-07T07:01:28;16.80;;;9.50;;
6095;SDS011;25081;42.698;23.298;2024-01-07T07:03:39;14.85;;;10.68;;
6095;SDS011;25081;42.698;23.298;2024-01-07T07:05:50;20.48;;;14.05;;
6095;SDS011;25081;42.698;23.298;2024-01-07T07:08:01;16.35;;;10.95;;
6095;SDS011;25081;42.698;23.298;2024-01-07T07:10:11;15.68;;;11.35;;
6095;SDS011;25081;42.698;23.298;2024-01-07T07:12:21;15.45;;;10.38;;
6095;SDS011;25081;42.698;23.298;2024-01-07T07:14:32;20.68;;;9.70;;
6095;SDS011;25081;42.698;23.298;2024-01-07T07:16:42;13.40;;;7.42;;
6095;SDS011;25081;42.698;23.298;2024-01-07T07:18:53;11.33;;;7.55;;
6095;SDS011;25081;42.698;23.298;2024-01-07T07:21:03;12.70;;;7.95;;
6095;SDS011;25081;42.698;23.298;2024-01-07T07:23:14;12.60;;;7.75;;
6095;SDS011;25081;42.698;23.298;2024-01-07T07:25:24;11.25;;;8.60;;
6095;SDS011;25081;42.698;23.298;2024-01-07T07:27:35;18.95;;;8.23;;
6095;SDS011;25081;42.698;23.298;2024-01-07T07:29:46;12.37;;;8.28;;
6095;SDS011;25081;42.698;23.298;2024-01-07T07:31:56;12.15;;;8.55;;
6095;SDS011;25081;42.698;23.298;2024-01-07T07:34:08;12.90;;;8.60;;
6095;SDS011;25081;42.698;23.298;2024-01-07T07:36:17;15.20;;;9.33;;
6095;SDS011;25081;42.698;23.298;2024-01-07T07:38:27;13.43;;;10.37;;
6095;SDS011;25081;42.698;23.298;2024-01-07T07:40:38;12.67;;;10.27;;
6095;SDS011;25081;42.698;23.298;2024-01-07T07:42:48;22.40;;;9.53;;
6095;SDS011;25081;42.698;23.298;2024-01-07T07:44:59;13.13;;;9.50;;
6095;SDS011;25081;42.698;23.298;2024-01-07T07:47:10;16.83;;;9.87;;
6095;SDS011;25081;42.698;23.298;2024-01-07T07:49:20;12.80;;;10.00;;
6095;SDS011;25081;42.698;23.298;2024-01-07T07:51:30;16.70;;;9.77;;
6095;SDS011;25081;42.698;23.298;2024-01-07T07:53:41;13.27;;;9.00;;
6095;SDS011;25081;42.698;23.298;2024-01-07T07:55:51;15.80;;;11.40;;
6095;SDS011;25081;42.698;23.298;2024-01-07T07:58:02;15.23;;;12.33;;
6095;SDS011;25081;42.698;23.298;2024-01-07T08:00:13;15.93;;;10.20;;
6095;SDS011;25081;42.698;23.298;2024-01-07T08:02:24;11.87;;;9.07;;
6095;SDS011;25081;42.698;23.298;2024-01-07T08:04:34;12.20;;;8.77;;
6095;SDS011;25081;42.698;23.298;2024-01-07T08:06:45;13.10;;;9.70;;
6095;SDS011;25081;42.698;23.298;2024-01-07T08:08:55;14.60;;;10.98;;
6095;SDS011;25081;42.698;23.298;2024-01-07T08:11:05;14.30;;;10.50;;
6095;SDS011;25081;42.698;23.298;2024-01-07T08:13:16;14.97;;;10.57;;
6095;SDS011;25081;42.698;23.298;2024-01-07T08:15:27;14.53;;;10.87;;
6095;SDS011;25081;42.698;23.298;2024-01-07T08:17:37;15.70;;;11.03;;
6095;SDS011;25081;42.698;23.298;2024-01-07T08:19:48;14.63;;;11.10;;
6095;SDS011;25081;42.698;23.298;2024-01-07T08:21:58;12.10;;;10.07;;
6095;SDS011;25081;42.698;23.298;2024-01-07T08:24:08;13.23;;;10.70;;
6095;SDS011;25081;42.698;23.298;2024-01-07T08:26:19;13.70;;;9.57;;
6095;SDS011;25081;42.698;23.298;2024-01-07T08:28:29;16.60;;;11.80;;
6095;SDS011;25081;42.698;23.298;2024-01-07T08:30:40;16.53;;;12.03;;
6095;SDS011;25081;42.698;23.298;2024-01-07T08:32:50;24.40;;;18.10;;
6095;SDS011;25081;42.698;23.298;2024-01-07T08:35:01;36.73;;;24.83;;
6095;SDS011;25081;42.698;23.298;2024-01-07T08:37:11;18.07;;;14.93;;
6095;SDS011;25081;42.698;23.298;2024-01-07T08:39:22;19.93;;;11.00;;
6095;SDS011;25081;42.698;23.298;2024-01-07T08:41:33;18.93;;;12.60;;
6095;SDS011;25081;42.698;23.298;2024-01-07T08:43:43;15.73;;;10.87;;
6095;SDS011;25081;42.698;23.298;2024-01-07T08:45:54;16.63;;;11.10;;
6095;SDS011;25081;42.698;23.298;2024-01-07T08:48:05;17.60;;;11.20;;
6095;SDS011;25081;42.698;23.298;2024-01-07T08:50:16;14.33;;;10.43;;
6095;SDS011;25081;42.698;23.298;2024-01-07T08:52:26;13.00;;;10.40;;
6095;SDS011;25081;42.698;23.298;2024-01-07T08:54:37;16.50;;;12.40;;
6095;SDS011;25081;42.698;23.298;2024-01-07T08:56:47;18.92;;;13.03;;
6095;SDS011;25081;42.698;23.298;2024-01-07T08:58:58;16.60;;;12.20;;
6095;SDS011;25081;42.698;23.298;2024-01-07T09:01:08;16.07;;;11.40;;
6095;SDS011;25081;42.698;23.298;2024-01-07T09:03:19;14.67;;;10.50;;
6095;SDS011;25081;42.698;23.298;2024-01-07T09:05:29;14.50;;;9.77;;
6095;SDS011;25081;42.698;23.298;2024-01-07T09:07:39;17.50;;;11.37;;
6095;SDS011;25081;42.698;23.298;2024-01-07T09:09:50;11.63;;;8.37;;
6095;SDS011;25081;42.698;23.298;2024-01-07T09:12:00;16.37;;;10.07;;
6095;SDS011;25081;42.698;23.298;2024-01-07T09:14:11;14.00;;;10.07;;
6095;SDS011;25081;42.698;23.298;2024-01-07T09:16:21;14.50;;;10.23;;
6095;SDS011;25081;42.698;23.298;2024-01-07T09:18:32;13.37;;;10.10;;
6095;SDS011;25081;42.698;23.298;2024-01-07T09:20:42;16.00;;;11.60;;
6095;SDS011;25081;42.698;23.298;2024-01-07T09:22:53;13.90;;;10.77;;
6095;SDS011;25081;42.698;23.298;2024-01-07T09:25:03;12.93;;;9.20;;
6095;SDS011;25081;42.698;23.298;2024-01-07T09:27:14;13.70;;;9.63;;
6095;SDS011;25081;42.698;23.298;2024-01-07T09:29:24;11.27;;;8.73;;
6095;SDS011;25081;42.698;23.298;2024-01-07T09:31:35;15.17;;;9.57;;
6095;SDS011;25081;42.698;23.298;2024-01-07T09:33:45;15.43;;;9.97;;
6095;SDS011;25081;42.698;23.298;2024-01-07T09:35:56;13.13;;;9.17;;
6095;SDS011;25081;42.698;23.298;2024-01-07T09:38:06;11.00;;;8.37;;
6095;SDS011;25081;42.698;23.298;2024-01-07T09:40:17;13.17;;;8.37;;
6095;SDS011;25081;42.698;23.298;2024-01-07T09:42:28;11.40;;;8.40;;
6095;SDS011;25081;42.698;23.298;2024-01-07T09:44:38;12.03;;;9.43;;
6095;SDS011;25081;42.698;23.298;2024-01-07T09:46:49;13.03;;;10.30;;
6095;SDS011;25081;42.698;23.298;2024-01-07T09:48:59;12.27;;;9.50;;
6095;SDS011;25081;42.698;23.298;2024-01-07T09:51:10;12.27;;;9.27;;
6095;SDS011;25081;42.698;23.298;2024-01-07T09:53:24;10.93;;;8.33;;
6095;SDS011;25081;42.698;23.298;2024-01-07T09:55:36;13.23;;;9.30;;
6095;SDS011;25081;42.698;23.298;2024-01-07T09:57:44;14.90;;;8.93;;
6095;SDS011;25081;42.698;23.298;2024-01-07T09:59:54;12.57;;;9.30;;
6095;SDS011;25081;42.698;23.298;2024-01-07T10:02:05;10.30;;;8.80;;
6095;SDS011;25081;42.698;23.298;2024-01-07T10:04:15;14.50;;;9.63;;
6095;SDS011;25081;42.698;23.298;2024-01-07T10:06:26;11.63;;;8.73;;
6095;SDS011;25081;42.698;23.298;2024-01-07T10:08:36;10.17;;;8.03;;
6095;SDS011;25081;42.698;23.298;2024-01-07T10:10:47;9.27;;;7.30;;
6095;SDS011;25081;42.698;23.298;2024-01-07T10:12:58;10.40;;;6.93;;
6095;SDS011;25081;42.698;23.298;2024-01-07T10:15:09;9.13;;;7.63;;
6095;SDS011;25081;42.698;23.298;2024-01-07T10:17:19;10.70;;;6.93;;
6095;SDS011;25081;42.698;23.298;2024-01-07T10:19:30;9.20;;;7.10;;
6095;SDS011;25081;42.698;23.298;2024-01-07T10:21:40;10.77;;;8.20;;
6095;SDS011;25081;42.698;23.298;2024-01-07T10:23:51;15.73;;;9.27;;
6095;SDS011;25081;42.698;23.298;2024-01-07T10:26:03;11.00;;;7.20;;
6095;SDS011;25081;42.698;23.298;2024-01-07T10:28:13;9.63;;;6.53;;
6095;SDS011;25081;42.698;23.298;2024-01-07T10:30:24;8.60;;;7.03;;
6095;SDS011;25081;42.698;23.298;2024-01-07T10:32:36;10.37;;;6.80;;
6095;SDS011;25081;42.698;23.298;2024-01-07T10:34:46;11.97;;;7.47;;
6095;SDS011;25081;42.698;23.298;2024-01-07T10:36:56;9.57;;;7.10;;
6095;SDS011;25081;42.698;23.298;2024-01-07T10:39:08;11.23;;;6.00;;
6095;SDS011;25081;42.698;23.298;2024-01-07T10:41:19;10.63;;;7.00;;
6095;SDS011;25081;42.698;23.298;2024-01-07T10:43:29;9.03;;;6.50;;
6095;SDS011;25081;42.698;23.298;2024-01-07T10:45:40;8.90;;;5.27;;
6095;SDS011;25081;42.698;23.298;2024-01-07T10:47:55;8.03;;;5.77;;
6095;SDS011;25081;42.698;23.298;2024-01-07T10:50:01;11.77;;;6.27;;
6095;SDS011;25081;42.698;23.298;2024-01-07T10:52:11;7.83;;;5.53;;
6095;SDS011;25081;42.698;23.298;2024-01-07T10:54:22;10.43;;;6.27;;
6095;SDS011;25081;42.698;23.298;2024-01-07T10:56:36;10.30;;;6.00;;
6095;SDS011;25081;42.698;23.298;2024-01-07T10:58:45;8.20;;;5.53;;
6095;SDS011;25081;42.698;23.298;2024-01-07T11:00:55;10.70;;;7.30;;
6095;SDS011;25081;42.698;23.298;2024-01-07T11:03:08;10.70;;;7.10;;
6095;SDS011;25081;42.698;23.298;2024-01-07T11:05:23;9.67;;;6.93;;
6095;SDS011;25081;42.698;23.298;2024-01-07T11:07:29;9.10;;;6.70;;
6095;SDS011;25081;42.698;23.298;2024-01-07T11:09:51;11.83;;;7.13;;
6095;SDS011;25081;42.698;23.298;2024-01-07T11:11:51;10.60;;;6.67;;
6095;SDS011;25081;42.698;23.298;2024-01-07T11:14:01;7.87;;;5.30;;
6095;SDS011;25081;42.698;23.298;2024-01-07T11:16:12;8.43;;;5.10;;
6095;SDS011;25081;42.698;23.298;2024-01-07T11:18:22;9.73;;;5.43;;
6095;SDS011;25081;42.698;23.298;2024-01-07T11:20:33;6.53;;;4.40;;
6095;SDS011;25081;42.698;23.298;2024-01-07T11:22:43;2.67;;;1.90;;
6095;SDS011;25081;42.698;23.298;2024-01-07T11:24:54;5.57;;;4.03;;
6095;SDS011;25081;42.698;23.298;2024-01-07T11:27:04;10.07;;;4.07;;
6095;SDS011;25081;42.698;23.298;2024-01-07T11:29:15;10.93;;;5.50;;
6095;SDS011;25081;42.698;23.298;2024-01-07T11:31:43;6.40;;;4.63;;
6095;SDS011;25081;42.698;23.298;2024-01-07T11:33:53;5.93;;;3.90;;
6095;SDS011;25081;42.698;23.298;2024-01-07T11:36:04;9.03;;;4.90;;
6095;SDS011;25081;42.698;23.298;2024-01-07T11:38:15;7.00;;;4.77;;
6095;SDS011;25081;42.698;23.298;2024-01-07T11:40:25;5.50;;;4.30;;
6095;SDS011;25081;42.698;23.298;2024-01-07T11:42:36;6.33;;;4.13;;
6095;SDS011;25081;42.698;23.298;2024-01-07T11:44:47;6.47;;;3.67;;
6095;SDS011;25081;42.698;23.298;2024-01-07T11:46:57;5.23;;;4.00;;
6095;SDS011;25081;42.698;23.298;2024-01-07T11:49:08;5.03;;;3.70;;
6095;SDS011;25081;42.698;23.298;2024-01-07T11:51:18;5.97;;;3.60;;
6095;SDS011;25081;42.698;23.298;2024-01-07T11:53:28;5.50;;;3.60;;
6095;SDS011;25081;42.698;23.298;2024-01-07T11:55:39;6.30;;;3.80;;
6095;SDS011;25081;42.698;23.298;2024-01-07T11:57:50;5.70;;;4.07;;
6095;SDS011;25081;42.698;23.298;2024-01-07T12:00:01;6.13;;;3.67;;
6095;SDS011;25081;42.698;23.298;2024-01-07T12:02:12;5.73;;;3.67;;
6095;SDS011;25081;42.698;23.298;2024-01-07T12:04:22;5.70;;;3.37;;
6095;SDS011;25081;42.698;23.298;2024-01-07T12:06:33;5.40;;;4.50;;
6095;SDS011;25081;42.698;23.298;2024-01-07T12:08:43;5.40;;;4.07;;
6095;SDS011;25081;42.698;23.298;2024-01-07T12:10:54;8.47;;;4.33;;
6095;SDS011;25081;42.698;23.298;2024-01-07T12:13:04;6.00;;;4.40;;
6095;SDS011;25081;42.698;23.298;2024-01-07T12:15:15;7.23;;;4.83;;
6095;SDS011;25081;42.698;23.298;2024-01-07T12:17:25;7.00;;;5.33;;
6095;SDS011;25081;42.698;23.298;2024-01-07T12:19:36;6.10;;;4.80;;
6095;SDS011;25081;42.698;23.298;2024-01-07T12:21:46;8.00;;;5.70;;
6095;SDS011;25081;42.698;23.298;2024-01-07T12:23:57;9.70;;;6.23;;
6095;SDS011;25081;42.698;23.298;2024-01-07T12:26:10;7.20;;;5.10;;
6095;SDS011;25081;42.698;23.298;2024-01-07T12:28:20;6.03;;;4.10;;
6095;SDS011;25081;42.698;23.298;2024-01-07T12:30:31;7.60;;;4.70;;
6095;SDS011;25081;42.698;23.298;2024-01-07T12:32:41;8.23;;;5.23;;
6095;SDS011;25081;42.698;23.298;2024-01-07T12:34:52;9.53;;;6.57;;
6095;SDS011;25081;42.698;23.298;2024-01-07T12:37:02;8.20;;;6.47;;
6095;SDS011;25081;42.698;23.298;2024-01-07T12:39:13;10.00;;;6.73;;
6095;SDS011;25081;42.698;23.298;2024-01-07T12:41:23;7.93;;;6.93;;
6095;SDS011;25081;42.698;23.298;2024-01-07T12:43:34;8.50;;;5.63;;
6095;SDS011;25081;42.698;23.298;2024-01-07T12:45:44;8.43;;;5.97;;
6095;SDS011;25081;42.698;23.298;2024-01-07T12:47:55;10.40;;;5.13;;
6095;SDS011;25081;42.698;23.298;2024-01-07T12:50:06;8.00;;;5.50;;
6095;SDS011;25081;42.698;23.298;2024-01-07T12:52:17;7.47;;;5.50;;